Time;durP1;ratioP1;P1;durP2;ratioP2;P2;SDS_P1;SDS_P2;PMS_P1;PMS_P2;Temp;Humidity;BMP_temperature;BMP_pressure;BME280_temperature;BME280_humidity;BME280_pressure;Samples;Min_cycle;Max_cycle;Signal;HPM_P1;HPM_P2
2023/08/19 00:00:15;;;;;;;14.10;12.20;;;23.80;82.50;;;;;;5020188;28;20037;-66
2023/08/19 00:02:44;;;;;;;13.32;11.90;;;23.70;82.50;;;;;;5021877;28;20033;-66
2023/08/19 00:05:10;;;;;;;13.52;11.73;;;23.70;83.20;;;;;;5020309;28;20021;-66
2023/08/19 00:07:36;;;;;;;14.40;11.50;;;23.70;82.60;;;;;;5025409;28;20496;-66
2023/08/19 00:10:04;;;;;;;15.93;13.65;;;23.70;82.60;;;;;;5021694;28;20121;-66
2023/08/19 00:12:30;;;;;;;15.75;13.50;;;23.70;82.70;;;;;;5024319;28;20456;-66
2023/08/19 00:14:56;;;;;;;16.63;13.80;;;23.70;82.70;;;;;;5024730;28;20471;-66
2023/08/19 00:17:23;;;;;;;16.10;13.45;;;23.70;82.80;;;;;;5025947;28;21613;-66
2023/08/19 00:19:49;;;;;;;15.95;13.75;;;23.70;82.90;;;;;;5026763;28;20037;-66
2023/08/19 00:22:15;;;;;;;15.38;12.88;;;23.70;82.90;;;;;;5023347;28;20040;-66
2023/08/19 00:24:41;;;;;;;16.35;13.85;;;23.70;82.90;;;;;;5024823;28;20526;-66
2023/08/19 00:27:06;;;;;;;15.45;13.73;;;23.70;82.90;;;;;;5019584;28;20030;-66
2023/08/19 00:29:32;;;;;;;14.15;12.65;;;23.70;82.90;;;;;;5050416;28;20135;-66
2023/08/19 00:31:58;;;;;;;16.23;12.70;;;23.60;82.90;;;;;;5001443;28;20374;-66
2023/08/19 00:34:24;;;;;;;15.43;13.43;;;23.70;82.90;;;;;;5015453;28;20030;-66
2023/08/19 00:36:49;;;;;;;16.35;13.40;;;23.60;82.90;;;;;;5023120;28;20033;-66
2023/08/19 00:39:15;;;;;;;15.80;13.45;;;23.60;82.90;;;;;;5018441;28;20068;-66
2023/08/19 00:41:41;;;;;;;17.55;14.02;;;23.60;83.00;;;;;;5022515;28;20026;-66
2023/08/19 00:44:07;;;;;;;15.10;13.35;;;23.60;83.00;;;;;;5024656;28;20516;-66
2023/08/19 00:46:33;;;;;;;14.85;13.23;;;23.60;83.00;;;;;;5023057;28;20097;-66
2023/08/19 00:49:00;;;;;;;17.55;14.68;;;23.60;83.10;;;;;;5017564;28;20025;-66
2023/08/19 00:51:26;;;;;;;16.45;13.18;;;23.60;83.10;;;;;;5019572;28;20040;-66
2023/08/19 00:53:54;;;;;;;16.42;13.18;;;23.60;83.20;;;;;;5022446;28;20354;-66
2023/08/19 00:56:19;;;;;;;15.93;13.65;;;23.50;83.10;;;;;;5023759;28;20033;-66
2023/08/19 00:58:47;;;;;;;15.38;13.68;;;23.60;83.20;;;;;;5022795;28;20031;-66
2023/08/19 01:01:13;;;;;;;17.05;15.20;;;23.50;83.20;;;;;;5025368;28;20021;-66
2023/08/19 01:03:39;;;;;;;16.52;13.95;;;23.50;83.30;;;;;;5025336;28;20030;-66
2023/08/19 01:06:26;;;;;;;17.48;13.98;;;23.50;83.30;;;;;;5023301;28;20468;-66
2023/08/19 01:09:12;;;;;;;17.73;14.27;;;23.50;83.30;;;;;;5046077;28;20029;-66
2023/08/19 01:12:01;;;;;;;18.77;14.48;;;23.50;83.40;;;;;;5025224;28;20533;-66
2023/08/19 01:14:40;;;;;;;15.82;13.82;;;23.50;83.40;;;;;;5025120;28;20029;-66
2023/08/19 01:17:10;;;;;;;17.58;15.07;;;23.50;83.40;;;;;;5025949;28;20036;-66
2023/08/19 01:19:37;;;;;;;16.83;14.88;;;23.50;83.50;;;;;;5010863;28;20033;-66
2023/08/19 01:22:05;;;;;;;17.17;15.38;;;23.40;83.40;;;;;;5025482;28;20068;-66
2023/08/19 01:24:43;;;;;;;16.30;14.60;;;23.40;83.50;;;;;;5025501;28;20554;-66
2023/08/19 01:27:25;;;;;;;17.17;15.13;;;23.40;83.50;;;;;;5026262;28;20447;-66
2023/08/19 01:29:55;;;;;;;15.98;13.73;;;23.40;83.50;;;;;;5026583;28;20169;-66
2023/08/19 01:32:22;;;;;;;17.63;15.15;;;23.40;83.60;;;;;;5026454;28;20026;-66
2023/08/19 01:34:49;;;;;;;17.50;15.45;;;23.30;83.60;;;;;;5026422;28;20018;-66
2023/08/19 01:37:33;;;;;;;17.60;15.70;;;23.30;83.60;;;;;;5029199;28;20044;-66
2023/08/19 01:40:00;;;;;;;17.17;15.38;;;23.40;83.70;;;;;;5026989;28;20030;-66
2023/08/19 01:42:26;;;;;;;16.15;14.25;;;23.30;83.70;;;;;;5020510;28;20401;-66
2023/08/19 01:44:53;;;;;;;17.85;15.77;;;23.30;83.70;;;;;;5021730;28;20036;-66
2023/08/19 01:47:20;;;;;;;17.90;15.88;;;23.30;83.70;;;;;;5029222;28;21468;-66
2023/08/19 01:49:46;;;;;;;19.67;16.83;;;23.30;83.80;;;;;;5027458;28;20041;-66
2023/08/19 01:52:13;;;;;;;17.63;15.82;;;23.30;83.90;;;;;;5011406;28;20057;-66
2023/08/19 01:54:39;;;;;;;20.13;16.77;;;23.30;83.80;;;;;;5025634;28;20124;-66
2023/08/19 01:57:06;;;;;;;20.42;18.23;;;23.30;83.80;;;;;;5033080;28;20013;-66
2023/08/19 01:59:32;;;;;;;20.65;17.75;;;23.30;83.80;;;;;;5030292;28;20036;-66
2023/08/19 02:01:58;;;;;;;20.98;18.63;;;23.30;83.80;;;;;;5006359;28;20022;-66
2023/08/19 02:04:24;;;;;;;21.58;18.73;;;23.30;83.90;;;;;;5011548;28;20025;-66
2023/08/19 02:06:50;;;;;;;23.00;20.38;;;23.30;83.90;;;;;;5025915;28;20026;-66
2023/08/19 02:09:16;;;;;;;22.88;20.58;;;23.20;83.80;;;;;;5029667;28;20025;-66
2023/08/19 02:11:42;;;;;;;22.45;19.77;;;23.30;83.90;;;;;;5031607;28;20029;-66
2023/08/19 02:14:08;;;;;;;22.80;20.30;;;23.30;84.00;;;;;;5034956;28;20370;-66
2023/08/19 02:16:34;;;;;;;23.48;19.50;;;23.20;83.90;;;;;;5033029;28;20039;-66
2023/08/19 02:19:00;;;;;;;22.90;20.40;;;23.30;84.00;;;;;;5031134;28;20116;-66
2023/08/19 02:21:26;;;;;;;22.48;19.65;;;23.20;84.00;;;;;;5027516;28;20517;-66
2023/08/19 02:23:53;;;;;;;22.45;19.95;;;23.20;84.00;;;;;;5023451;28;20029;-66
2023/08/19 02:26:19;;;;;;;22.02;19.15;;;23.20;84.00;;;;;;5029897;28;20064;-66
2023/08/19 02:28:46;;;;;;;21.40;19.15;;;23.20;84.00;;;;;;5030795;28;20064;-66
2023/08/19 02:31:11;;;;;;;20.98;18.73;;;23.20;84.00;;;;;;5027953;28;20136;-66
2023/08/19 02:33:38;;;;;;;20.63;18.48;;;23.20;84.00;;;;;;5029973;28;20079;-66
2023/08/19 02:36:07;;;;;;;23.27;19.20;;;23.20;84.10;;;;;;5016563;28;20017;-66
2023/08/19 02:38:33;;;;;;;23.23;19.27;;;23.20;84.20;;;;;;5017559;28;20014;-66
2023/08/19 02:40:59;;;;;;;22.20;18.13;;;23.20;84.20;;;;;;5018787;28;20064;-66
2023/08/19 02:43:25;;;;;;;20.08;17.92;;;23.20;84.20;;;;;;5020138;28;20466;-66
2023/08/19 02:45:53;;;;;;;20.90;18.13;;;23.20;84.20;;;;;;5025594;28;20053;-66
2023/08/19 02:48:18;;;;;;;22.40;18.55;;;23.20;84.20;;;;;;5024129;28;20044;-66
2023/08/19 02:50:44;;;;;;;19.17;16.65;;;23.20;84.20;;;;;;5022815;28;20052;-66
2023/08/19 02:53:10;;;;;;;19.52;16.40;;;23.30;84.20;;;;;;5019913;28;20092;-66
2023/08/19 02:55:41;;;;;;;21.27;17.77;;;23.30;84.20;;;;;;5020958;28;20087;-66
2023/08/19 02:58:07;;;;;;;18.65;16.65;;;23.30;84.20;;;;;;5022509;28;20152;-66
2023/08/19 03:00:37;;;;;;;19.63;17.30;;;23.30;84.20;;;;;;5029038;28;20376;-66
2023/08/19 03:03:05;;;;;;;19.20;16.23;;;23.30;84.20;;;;;;5028078;28;20049;-66
2023/08/19 03:05:37;;;;;;;17.67;15.80;;;23.30;84.20;;;;;;5001687;28;20178;-66
2023/08/19 03:08:03;;;;;;;17.90;16.00;;;23.30;84.20;;;;;;5017397;28;20022;-66
2023/08/19 03:10:32;;;;;;;17.80;15.68;;;23.30;84.20;;;;;;5016951;28;20427;-66
2023/08/19 03:12:59;;;;;;;18.15;15.77;;;23.30;84.20;;;;;;5023499;28;20040;-66
2023/08/19 03:15:25;;;;;;;17.48;15.45;;;23.30;84.20;;;;;;5031848;28;20022;-66
2023/08/19 03:17:51;;;;;;;18.23;16.00;;;23.30;84.20;;;;;;5018393;28;20030;-66
2023/08/19 03:20:17;;;;;;;18.80;15.02;;;23.30;84.20;;;;;;5020948;28;20103;-66
2023/08/19 03:22:42;;;;;;;18.50;15.93;;;23.30;84.20;;;;;;5025260;28;20024;-66
2023/08/19 03:25:09;;;;;;;17.73;15.65;;;23.30;84.10;;;;;;5021650;28;20017;-66
2023/08/19 03:27:36;;;;;;;19.38;15.18;;;23.30;84.10;;;;;;5022315;28;20030;-66
2023/08/19 03:30:04;;;;;;;18.38;15.80;;;23.30;84.10;;;;;;5020316;28;20180;-66
2023/08/19 03:32:31;;;;;;;17.55;15.18;;;23.40;84.10;;;;;;5023621;28;20037;-66
2023/08/19 03:34:57;;;;;;;18.05;15.63;;;23.40;84.10;;;;;;5020320;28;20040;-66
2023/08/19 03:37:24;;;;;;;17.08;14.98;;;23.40;84.10;;;;;;5023551;28;20087;-66
2023/08/19 03:39:50;;;;;;;17.90;15.93;;;23.40;84.00;;;;;;5021389;28;20029;-66
2023/08/19 03:42:16;;;;;;;19.35;15.98;;;23.40;84.00;;;;;;5016012;28;20112;-66
2023/08/19 03:44:42;;;;;;;16.27;14.52;;;23.40;84.00;;;;;;5002886;28;20068;-66
2023/08/19 03:47:11;;;;;;;17.85;15.07;;;23.40;84.00;;;;;;5016839;28;20099;-66
2023/08/19 03:49:37;;;;;;;17.08;15.05;;;23.40;84.00;;;;;;5037203;28;20034;-66
2023/08/19 03:52:06;;;;;;;17.08;14.52;;;23.40;84.00;;;;;;5023374;28;20131;-66
2023/08/19 03:54:32;;;;;;;16.60;14.20;;;23.40;84.00;;;;;;5015935;28;20107;-66
2023/08/19 03:56:58;;;;;;;19.00;14.45;;;23.40;84.00;;;;;;5016256;28;20481;-66
2023/08/19 03:59:23;;;;;;;15.80;13.85;;;23.40;84.10;;;;;;5028466;28;20038;-66
2023/08/19 04:01:49;;;;;;;16.90;14.45;;;23.30;84.00;;;;;;5022931;28;20025;-66
2023/08/19 04:04:15;;;;;;;15.40;13.30;;;23.40;84.20;;;;;;5025089;28;20033;-66
2023/08/19 04:06:41;;;;;;;15.82;13.88;;;23.40;84.20;;;;;;5021680;28;20399;-66
2023/08/19 04:09:07;;;;;;;16.05;14.13;;;23.40;84.20;;;;;;5022446;28;20082;-66
2023/08/19 04:11:36;;;;;;;16.58;14.63;;;23.40;84.20;;;;;;5025107;28;20036;-66
2023/08/19 04:14:02;;;;;;;17.45;14.05;;;23.40;84.20;;;;;;5017668;28;20084;-66
2023/08/19 04:16:28;;;;;;;16.95;14.20;;;23.30;84.00;;;;;;5019507;28;20026;-66
2023/08/19 04:18:54;;;;;;;17.38;14.35;;;23.40;84.00;;;;;;5024898;28;20025;-66
2023/08/19 04:21:19;;;;;;;16.02;13.85;;;23.30;84.00;;;;;;5027007;28;20049;-66
2023/08/19 04:23:45;;;;;;;16.90;13.77;;;23.40;84.00;;;;;;5015871;28;20466;-66
2023/08/19 04:26:11;;;;;;;18.42;14.82;;;23.40;84.00;;;;;;5021360;28;20036;-66
2023/08/19 04:28:37;;;;;;;18.40;15.32;;;23.40;83.90;;;;;;5022565;28;20029;-66
2023/08/19 04:31:05;;;;;;;15.20;13.57;;;23.40;83.90;;;;;;5002679;28;20034;-66
2023/08/19 04:33:38;;;;;;;17.13;14.07;;;23.40;83.90;;;;;;4999085;28;20033;-66
2023/08/19 04:36:04;;;;;;;17.40;13.73;;;23.40;83.80;;;;;;5027414;28;20030;-66
2023/08/19 04:38:31;;;;;;;17.85;14.18;;;23.30;83.80;;;;;;5019111;28;20414;-66
2023/08/19 04:41:02;;;;;;;16.25;13.15;;;23.40;83.80;;;;;;5023904;28;20029;-66
2023/08/19 04:43:33;;;;;;;15.25;13.35;;;23.40;83.80;;;;;;5018887;28;20504;-66
2023/08/19 04:45:59;;;;;;;14.45;12.55;;;23.30;83.80;;;;;;5024271;28;20135;-66
2023/08/19 04:48:25;;;;;;;15.02;12.80;;;23.40;83.80;;;;;;5023846;28;20352;-66
2023/08/19 04:50:51;;;;;;;15.27;13.10;;;23.40;83.90;;;;;;5029065;28;20030;-66
2023/08/19 04:53:16;;;;;;;15.80;12.40;;;23.30;83.80;;;;;;5018877;28;20068;-66
2023/08/19 04:55:42;;;;;;;15.43;12.48;;;23.30;83.80;;;;;;5027507;28;20022;-66
2023/08/19 04:58:08;;;;;;;14.40;11.98;;;23.40;83.90;;;;;;5027238;28;20419;-66
2023/08/19 05:00:35;;;;;;;18.90;13.63;;;23.30;83.80;;;;;;5028212;28;20120;-66
2023/08/19 05:03:01;;;;;;;16.25;12.55;;;23.30;83.70;;;;;;5028997;28;20129;-66
2023/08/19 05:05:27;;;;;;;16.17;11.82;;;23.40;83.70;;;;;;5026186;28;20025;-66
2023/08/19 05:07:53;;;;;;;14.18;11.90;;;23.40;83.60;;;;;;5022306;28;20115;-66
2023/08/19 05:10:19;;;;;;;16.25;12.82;;;23.40;83.50;;;;;;5054197;28;20032;-67
2023/08/19 05:12:45;;;;;;;15.02;11.65;;;23.40;83.50;;;;;;5035723;28;20339;-68
2023/08/19 05:15:12;;;;;;;14.15;11.38;;;23.40;83.50;;;;;;5036854;28;20018;-68
2023/08/19 05:17:38;;;;;;;14.35;10.35;;;23.40;83.40;;;;;;5038181;28;20030;-67
2023/08/19 05:20:04;;;;;;;14.48;11.52;;;23.40;83.50;;;;;;5037510;28;20025;-67
2023/08/19 05:22:30;;;;;;;15.27;12.45;;;23.40;83.50;;;;;;5032498;28;20032;-68
2023/08/19 05:24:57;;;;;;;13.00;10.85;;;23.40;83.60;;;;;;5036733;28;20040;-68
2023/08/19 05:27:23;;;;;;;13.68;10.75;;;23.40;83.50;;;;;;5036413;28;20033;-67
2023/08/19 05:29:49;;;;;;;13.35;11.13;;;23.50;83.60;;;;;;5037900;28;20033;-67
2023/08/19 05:32:14;;;;;;;13.43;10.25;;;23.50;83.60;;;;;;5034963;28;20025;-67
2023/08/19 05:34:40;;;;;;;13.07;11.00;;;23.50;83.60;;;;;;5036433;28;20136;-68
2023/08/19 05:37:06;;;;;;;15.00;11.25;;;23.50;83.50;;;;;;5036396;28;20048;-68
2023/08/19 05:39:31;;;;;;;14.05;11.15;;;23.50;83.60;;;;;;5037489;28;20427;-68
2023/08/19 05:41:57;;;;;;;13.85;10.48;;;23.60;83.50;;;;;;5035330;28;20026;-68
2023/08/19 05:44:23;;;;;;;13.10;10.20;;;23.50;83.40;;;;;;5035323;28;20029;-68
2023/08/19 05:46:50;;;;;;;11.90;9.70;;;23.60;83.50;;;;;;5028931;28;20033;-67
2023/08/19 05:49:15;;;;;;;13.43;9.88;;;23.60;83.40;;;;;;5022007;28;20101;-67
2023/08/19 05:51:41;;;;;;;11.73;9.63;;;23.60;83.30;;;;;;5017588;28;20132;-68
2023/08/19 05:54:07;;;;;;;13.75;9.82;;;23.60;83.30;;;;;;5047990;28;20056;-67
2023/08/19 05:56:33;;;;;;;15.10;10.60;;;23.60;83.20;;;;;;5021106;28;20021;-68
2023/08/19 05:58:59;;;;;;;13.45;10.27;;;23.60;83.10;;;;;;5024768;28;20109;-67
2023/08/19 06:01:25;;;;;;;12.38;10.05;;;23.60;83.10;;;;;;5020532;28;20442;-68
2023/08/19 06:03:51;;;;;;;13.05;9.88;;;23.60;83.20;;;;;;5024587;28;20086;-67
2023/08/19 06:06:17;;;;;;;13.32;10.05;;;23.60;83.10;;;;;;5020385;28;20470;-67
2023/08/19 06:08:43;;;;;;;17.13;9.68;;;23.60;83.00;;;;;;5026089;28;20451;-67
2023/08/19 06:11:08;;;;;;;14.45;9.73;;;23.60;82.90;;;;;;5019926;28;20068;-67
2023/08/19 06:13:35;;;;;;;16.33;9.80;;;23.60;82.80;;;;;;5024020;28;20034;-67
2023/08/19 06:16:01;;;;;;;15.70;10.23;;;23.60;82.70;;;;;;5022154;28;20056;-67
2023/08/19 06:18:28;;;;;;;12.75;9.23;;;23.70;82.70;;;;;;5025952;28;20033;-67
2023/08/19 06:20:55;;;;;;;13.68;9.75;;;23.70;82.60;;;;;;5030497;28;20030;-67
2023/08/19 06:23:21;;;;;;;11.80;8.50;;;23.70;82.50;;;;;;5025396;28;20075;-67
2023/08/19 06:25:51;;;;;;;13.25;9.13;;;23.80;82.50;;;;;;5025582;28;20034;-67
2023/08/19 06:28:19;;;;;;;11.88;8.60;;;23.90;82.40;;;;;;5021506;28;20030;-67
2023/08/19 06:30:46;;;;;;;11.45;8.85;;;23.90;82.20;;;;;;5020837;28;20418;-67
2023/08/19 06:33:12;;;;;;;12.25;9.05;;;24.00;82.20;;;;;;5025279;28;20064;-67
2023/08/19 06:35:38;;;;;;;11.02;8.73;;;24.00;82.10;;;;;;5026008;28;20052;-67
2023/08/19 06:38:23;;;;;;;11.90;8.65;;;24.00;81.90;;;;;;5029108;28;20048;-67
2023/08/19 06:40:58;;;;;;;14.15;8.93;;;24.00;81.70;;;;;;5023177;28;20048;-68
2023/08/19 06:43:27;;;;;;;10.48;8.13;;;24.10;81.50;;;;;;5031436;28;20514;-67
2023/08/19 06:45:56;;;;;;;12.10;8.32;;;24.10;81.30;;;;;;5017948;28;20030;-66
2023/08/19 06:48:23;;;;;;;10.02;8.15;;;24.10;81.30;;;;;;5021476;28;20030;-66
2023/08/19 06:50:51;;;;;;;11.70;7.97;;;24.10;81.30;;;;;;5039689;28;20398;-67
2023/08/19 06:53:17;;;;;;;11.38;8.10;;;24.20;81.20;;;;;;5017071;28;20076;-67
2023/08/19 06:55:50;;;;;;;11.68;7.85;;;24.20;81.10;;;;;;5025197;28;20044;-67
2023/08/19 06:58:25;;;;;;;12.30;8.27;;;24.20;81.10;;;;;;5028295;28;20045;-67
2023/08/19 07:00:58;;;;;;;11.90;8.10;;;24.20;81.00;;;;;;5015247;28;20026;-67
2023/08/19 07:03:27;;;;;;;12.23;7.70;;;24.20;80.90;;;;;;5016365;28;20041;-67
2023/08/19 07:05:55;;;;;;;11.63;8.45;;;24.20;80.90;;;;;;5021466;28;20048;-67
2023/08/19 07:08:22;;;;;;;11.57;7.65;;;24.20;80.80;;;;;;5018379;28;20022;-67
2023/08/19 07:10:48;;;;;;;10.68;7.88;;;24.30;80.70;;;;;;5016262;28;20394;-67
2023/08/19 07:13:14;;;;;;;9.93;7.25;;;24.30;80.50;;;;;;5016095;28;20052;-67
2023/08/19 07:15:46;;;;;;;11.48;8.13;;;24.30;80.30;;;;;;5015345;28;20446;-67
2023/08/19 07:18:17;;;;;;;12.48;7.80;;;24.40;80.30;;;;;;5020604;28;20038;-67
2023/08/19 07:20:43;;;;;;;12.05;8.07;;;24.40;80.10;;;;;;5014671;28;20049;-67
2023/08/19 07:23:10;;;;;;;10.93;7.93;;;24.50;80.00;;;;;;5040663;28;20040;-67
2023/08/19 07:25:37;;;;;;;12.32;7.85;;;24.50;79.90;;;;;;5024669;28;20080;-67
2023/08/19 07:28:04;;;;;;;10.60;8.10;;;24.50;79.70;;;;;;5026078;28;20029;-67
2023/08/19 07:30:31;;;;;;;11.90;7.35;;;24.60;79.60;;;;;;5018223;28;20035;-67
2023/08/19 07:32:56;;;;;;;9.90;6.82;;;24.70;79.60;;;;;;5034166;28;20025;-67
2023/08/19 07:35:23;;;;;;;10.90;6.70;;;24.70;79.40;;;;;;5024748;28;20089;-68
2023/08/19 07:37:49;;;;;;;11.75;7.30;;;24.70;79.20;;;;;;5029838;28;20052;-68
2023/08/19 07:40:14;;;;;;;10.27;6.53;;;24.80;79.10;;;;;;5042781;28;20060;-67
2023/08/19 07:42:40;;;;;;;11.73;6.80;;;24.80;78.80;;;;;;5024783;28;20029;-68
2023/08/19 07:45:07;;;;;;;11.98;6.25;;;24.90;78.70;;;;;;5046223;28;20022;-67
2023/08/19 07:47:32;;;;;;;11.88;6.57;;;24.90;78.50;;;;;;5027326;28;20021;-67
2023/08/19 07:49:58;;;;;;;9.45;6.68;;;24.90;78.30;;;;;;5030237;28;20502;-68
2023/08/19 07:52:24;;;;;;;11.30;6.95;;;25.00;78.30;;;;;;5034264;28;20025;-68
2023/08/19 07:54:50;;;;;;;9.52;6.88;;;25.00;78.00;;;;;;5034552;28;20041;-68
2023/08/19 07:57:15;;;;;;;11.45;6.25;;;25.10;77.80;;;;;;5033664;28;20025;-68
2023/08/19 07:59:41;;;;;;;12.20;6.60;;;25.40;77.40;;;;;;5031924;28;20041;-68
2023/08/19 08:02:07;;;;;;;10.63;6.20;;;25.80;76.60;;;;;;5035149;28;20359;-68
2023/08/19 08:04:32;;;;;;;9.48;5.93;;;26.30;75.80;;;;;;5034615;28;20375;-68
2023/08/19 08:06:58;;;;;;;11.23;6.78;;;26.60;75.70;;;;;;5034852;28;20033;-68
2023/08/19 08:09:24;;;;;;;10.32;5.78;;;26.90;74.60;;;;;;5032115;28;20040;-67
2023/08/19 08:11:50;;;;;;;9.18;6.10;;;27.00;74.40;;;;;;5034610;28;20037;-68
2023/08/19 08:14:16;;;;;;;10.10;6.25;;;27.00;74.10;;;;;;5034788;28;20039;-68
2023/08/19 08:16:42;;;;;;;9.55;6.10;;;27.00;73.80;;;;;;5035155;28;20080;-68
2023/08/19 08:19:07;;;;;;;10.75;5.63;;;27.00;73.80;;;;;;5016550;28;20021;-68
2023/08/19 08:21:33;;;;;;;9.65;5.93;;;27.10;73.60;;;;;;5024634;28;20354;-68
2023/08/19 08:23:59;;;;;;;11.35;5.95;;;27.00;73.50;;;;;;5029916;28;20374;-68
2023/08/19 08:26:25;;;;;;;9.10;5.63;;;27.00;73.60;;;;;;5033477;28;20056;-68
2023/08/19 08:28:50;;;;;;;10.55;6.00;;;26.90;73.50;;;;;;5033399;28;20030;-68
2023/08/19 08:31:17;;;;;;;12.05;6.70;;;26.90;73.70;;;;;;5020500;28;20462;-68
2023/08/19 08:33:42;;;;;;;8.88;5.90;;;26.90;73.70;;;;;;5034397;28;20033;-68
2023/08/19 08:36:08;;;;;;;9.63;5.90;;;26.90;73.90;;;;;;5034820;28;20024;-68
2023/08/19 08:38:34;;;;;;;9.50;5.80;;;26.80;74.20;;;;;;5033627;28;20037;-68
2023/08/19 08:41:03;;;;;;;8.85;5.70;;;26.70;74.10;;;;;;5032271;28;20037;-68
2023/08/19 08:43:33;;;;;;;10.20;5.68;;;26.70;74.10;;;;;;5017158;28;20079;-68
2023/08/19 08:46:00;;;;;;;8.90;5.72;;;26.60;74.20;;;;;;5034453;28;20036;-68
2023/08/19 08:48:34;;;;;;;13.00;5.90;;;26.70;74.30;;;;;;5033496;28;20025;-68
2023/08/19 08:51:01;;;;;;;10.13;5.80;;;26.70;74.50;;;;;;5032401;28;20033;-68
2023/08/19 08:53:28;;;;;;;10.38;5.90;;;26.70;74.30;;;;;;5033210;28;20396;-66
2023/08/19 08:55:55;;;;;;;10.48;6.50;;;26.70;74.30;;;;;;5034052;28;20163;-66
2023/08/19 08:58:21;;;;;;;10.02;6.72;;;26.70;74.50;;;;;;5016870;28;20022;-66
2023/08/19 09:00:48;;;;;;;13.15;7.25;;;26.60;74.60;;;;;;5033330;28;20037;-66
2023/08/19 09:03:19;;;;;;;9.43;6.95;;;26.60;74.70;;;;;;5034183;28;20029;-66
2023/08/19 09:05:50;;;;;;;10.95;6.75;;;26.60;74.60;;;;;;5034533;28;20442;-66
2023/08/19 09:08:17;;;;;;;;;;;26.50;74.70;;;;;;5034670;28;20095;-66
2023/08/19 09:10:47;;;;;;;10.45;6.63;;;26.50;74.90;;;;;;5033103;28;19931;-66
2023/08/19 09:13:19;;;;;;;10.52;6.60;;;26.40;75.70;;;;;;5035161;28;20354;-66
2023/08/19 09:15:45;;;;;;;11.43;7.47;;;26.30;75.30;;;;;;5033205;28;20393;-66
2023/08/19 09:18:11;;;;;;;10.05;7.45;;;26.30;75.40;;;;;;5034212;28;20079;-66
2023/08/19 09:20:37;;;;;;;10.25;8.00;;;26.30;75.70;;;;;;5033402;28;20037;-66
2023/08/19 09:23:07;;;;;;;12.00;8.20;;;26.30;75.80;;;;;;5035973;28;20485;-66
2023/08/19 09:25:33;;;;;;;10.40;7.53;;;26.30;75.90;;;;;;5036944;28;20352;-66
2023/08/19 09:27:59;;;;;;;11.48;8.23;;;26.30;76.10;;;;;;5033300;28;20399;-65
2023/08/19 09:30:34;;;;;;;12.32;8.15;;;26.30;76.30;;;;;;5032801;28;20514;-66
2023/08/19 09:33:00;;;;;;;11.40;7.78;;;26.20;76.30;;;;;;5037702;28;20025;-66
2023/08/19 09:35:36;;;;;;;12.82;7.53;;;26.20;76.40;;;;;;5037261;28;20108;-66
2023/08/19 09:38:02;;;;;;;10.32;8.50;;;26.20;76.50;;;;;;5037703;28;20049;-66
2023/08/19 09:40:28;;;;;;;12.82;8.32;;;26.10;76.40;;;;;;5035561;28;20033;-66
2023/08/19 09:42:56;;;;;;;13.25;8.63;;;26.10;76.70;;;;;;5037359;28;20028;-66
2023/08/19 09:45:25;;;;;;;14.75;8.85;;;26.10;76.90;;;;;;5037410;28;20044;-65
2023/08/19 09:47:52;;;;;;;11.95;8.70;;;26.00;77.30;;;;;;5037646;28;20713;-65
2023/08/19 09:50:20;;;;;;;13.68;9.15;;;26.00;77.60;;;;;;5034675;28;20164;-65
2023/08/19 09:52:57;;;;;;;13.27;9.32;;;26.00;77.90;;;;;;5019369;28;20071;-65
2023/08/19 09:55:24;;;;;;;11.13;9.00;;;26.00;78.20;;;;;;5037096;28;20029;-66
2023/08/19 09:57:50;;;;;;;12.40;8.38;;;26.00;78.50;;;;;;5036787;28;20446;-66
2023/08/19 10:00:16;;;;;;;12.65;9.48;;;26.00;78.50;;;;;;5035136;28;20036;-66
2023/08/19 10:02:42;;;;;;;12.38;9.45;;;26.00;78.50;;;;;;5032042;28;20045;-68
2023/08/19 10:05:08;;;;;;;12.88;9.40;;;26.10;78.50;;;;;;5037127;28;20048;-68
2023/08/19 10:07:37;;;;;;;13.93;9.10;;;26.20;78.40;;;;;;5035741;28;20038;-68
2023/08/19 10:10:05;;;;;;;14.18;9.57;;;26.30;78.30;;;;;;5036773;28;20043;-68
2023/08/19 10:12:38;;;;;;;12.02;9.88;;;26.50;78.10;;;;;;5034358;28;20026;-68
2023/08/19 10:15:07;;;;;;;12.63;8.93;;;26.70;77.70;;;;;;5035803;28;20036;-69
2023/08/19 10:17:36;;;;;;;11.35;8.73;;;27.00;77.30;;;;;;5036057;28;20381;-68
2023/08/19 10:20:11;;;;;;;11.70;9.50;;;27.20;76.80;;;;;;5036513;28;20473;-68
2023/08/19 10:22:41;;;;;;;10.48;8.77;;;27.50;76.30;;;;;;5032103;28;20033;-69
2023/08/19 10:25:09;;;;;;;11.27;9.35;;;27.70;75.90;;;;;;5035822;28;20436;-68
2023/08/19 10:27:35;;;;;;;13.32;10.05;;;27.90;75.50;;;;;;5031813;28;20029;-68
2023/08/19 10:30:24;;;;;;;14.82;9.80;;;27.90;75.20;;;;;;5031446;28;20468;-68
2023/08/19 10:32:50;;;;;;;11.82;9.07;;;28.10;75.00;;;;;;5026994;28;20406;-68
2023/08/19 10:35:17;;;;;;;15.73;10.45;;;28.40;74.60;;;;;;5026766;28;20370;-68
2023/08/19 10:37:45;;;;;;;14.45;11.18;;;28.70;74.00;;;;;;5033635;28;20112;-68
2023/08/19 10:40:20;;;;;;;11.80;9.68;;;29.00;73.10;;;;;;5036021;28;20107;-68
2023/08/19 10:42:59;;;;;;;13.90;10.70;;;29.30;72.60;;;;;;5029684;28;20041;-68
2023/08/19 10:45:32;;;;;;;14.60;11.63;;;29.40;71.90;;;;;;5025912;28;20033;-66
2023/08/19 10:47:58;;;;;;;13.15;10.25;;;29.40;71.60;;;;;;5041975;28;20030;-66
2023/08/19 10:50:27;;;;;;;15.80;11.60;;;29.30;71.80;;;;;;5021322;28;20083;-66
2023/08/19 10:52:59;;;;;;;12.63;10.48;;;29.40;71.60;;;;;;5019759;28;20049;-66
2023/08/19 10:55:25;;;;;;;14.43;10.93;;;29.50;71.90;;;;;;5004383;28;20042;-67
2023/08/19 10:57:51;;;;;;;13.15;10.63;;;29.70;71.10;;;;;;5021920;28;20108;-67
2023/08/19 11:00:23;;;;;;;13.32;10.27;;;29.60;71.00;;;;;;5019694;28;20026;-67
2023/08/19 11:02:49;;;;;;;12.52;10.60;;;29.70;71.00;;;;;;5020503;28;20367;-67
2023/08/19 11:05:25;;;;;;;12.45;10.35;;;29.90;70.80;;;;;;5016919;28;20018;-68
2023/08/19 11:07:51;;;;;;;14.13;10.73;;;29.70;70.70;;;;;;5021179;28;20117;-67
2023/08/19 11:10:17;;;;;;;15.10;11.23;;;29.50;71.00;;;;;;5023656;28;20048;-67
2023/08/19 11:12:45;;;;;;;13.98;11.43;;;29.40;71.30;;;;;;5027055;28;20026;-67
2023/08/19 11:15:11;;;;;;;13.75;12.10;;;29.30;71.50;;;;;;5019867;28;20064;-67
2023/08/19 11:17:37;;;;;;;14.57;13.07;;;29.20;71.70;;;;;;5021001;28;20029;-67
2023/08/19 11:20:11;;;;;;;14.15;12.52;;;29.10;71.90;;;;;;5022788;28;20104;-67
2023/08/19 11:22:48;;;;;;;17.45;13.98;;;29.00;72.10;;;;;;5010598;28;20057;-67
2023/08/19 11:25:14;;;;;;;16.60;14.93;;;28.90;72.20;;;;;;5016171;28;20038;-67
2023/08/19 11:27:41;;;;;;;17.35;15.65;;;28.80;72.40;;;;;;5027015;28;20084;-68
2023/08/19 11:30:10;;;;;;;17.83;16.00;;;28.70;72.60;;;;;;5020441;28;20457;-67
2023/08/19 11:32:36;;;;;;;18.00;16.10;;;28.60;72.90;;;;;;5021779;28;20092;-67
2023/08/19 11:35:02;;;;;;;18.02;16.05;;;28.50;73.00;;;;;;5016793;28;20443;-68
2023/08/19 11:37:29;;;;;;;17.73;15.93;;;28.40;73.30;;;;;;5018581;28;20025;-67
2023/08/19 11:39:55;;;;;;;19.83;17.73;;;28.40;73.50;;;;;;5017165;28;20053;-67
2023/08/19 11:42:20;;;;;;;19.10;17.10;;;28.30;73.60;;;;;;5022077;28;20029;-68
2023/08/19 11:44:46;;;;;;;20.20;17.90;;;28.20;73.70;;;;;;5024041;28;20076;-68
2023/08/19 11:47:13;;;;;;;20.08;17.10;;;28.10;73.80;;;;;;5020634;28;20073;-68
2023/08/19 11:49:42;;;;;;;20.45;18.23;;;27.90;73.90;;;;;;5022461;28;20045;-68
2023/08/19 11:52:08;;;;;;;18.65;14.95;;;27.80;74.10;;;;;;5021231;28;20032;-68
2023/08/19 11:54:33;;;;;;;18.23;15.93;;;27.70;74.30;;;;;;5026310;28;20037;-68
2023/08/19 11:57:04;;;;;;;18.00;14.75;;;27.60;74.50;;;;;;5015364;28;20025;-67
2023/08/19 11:59:34;;;;;;;17.48;14.52;;;27.60;74.60;;;;;;5000181;28;20030;-68
2023/08/19 12:02:05;;;;;;;17.83;14.18;;;27.60;74.60;;;;;;5015663;28;20033;-67
2023/08/19 12:04:35;;;;;;;16.63;12.95;;;27.60;74.60;;;;;;5025576;28;20397;-68
2023/08/19 12:07:25;;;;;;;13.95;10.95;;;27.50;74.60;;;;;;5018073;28;20025;-67
2023/08/19 12:09:55;;;;;;;13.20;11.30;;;27.50;74.50;;;;;;5024346;28;20048;-68
2023/08/19 12:12:21;;;;;;;11.85;9.52;;;27.40;74.60;;;;;;5018179;28;20308;-68
2023/08/19 12:14:46;;;;;;;13.55;9.82;;;27.40;74.70;;;;;;5017044;28;20042;-68
2023/08/19 12:17:13;;;;;;;13.70;9.63;;;27.30;74.80;;;;;;5001013;28;20034;-68
2023/08/19 12:19:39;;;;;;;11.25;8.38;;;27.30;74.80;;;;;;5021858;28;20316;-68
2023/08/19 12:22:05;;;;;;;12.23;8.85;;;27.10;74.80;;;;;;5016075;28;20068;-68
2023/08/19 12:24:30;;;;;;;13.07;8.25;;;27.00;74.80;;;;;;5026286;28;20029;-67
2023/08/19 12:26:57;;;;;;;11.50;8.20;;;26.90;75.00;;;;;;5019744;28;20021;-68
2023/08/19 12:29:23;;;;;;;11.27;8.60;;;26.90;75.20;;;;;;5017030;28;20113;-67
2023/08/19 12:31:49;;;;;;;10.48;7.53;;;26.80;75.20;;;;;;5018680;28;21827;-68